Hauptseite
METAR-TAF:

METAR-TAF

Flughäfen :

Posadas, Argentinien

Breite: 27-22S, Länge: 055-58W, Höhe: 131 m

Beobachtung

Neuester Wetterbericht von vor 1 Stunde und 7 Minuten, um 19:00 UTC
Wind 7 kt aus Südost
Temperatur 32°C
Luftfeuchtigkeit 46%
Luftdruck 1013 hPa
Sichtweite 10 km oder mehr
Aufgelockert bewölkt in der Höhe von 3000 ft

METAR: SARP 181900Z 14007KT 9999 SCT030 32/19 Q1013

Zeit: 17:07 (20:07 UTC)

Prognose

Neuester Wetterbericht von vor 3 Stunden und 7 Minuten, um 17:00 UTC
Gültige Prognose vom 18 um 18 UTC bis 19 um 18 UTC
Wind 10 kt aus Südost
Sichtweite 10 km oder mehr
Durchbrochene Bewölkung in der Höhe von 2000 ft
Übergehend zu
vom 18 um 22 UTC bis 18 um 24 UTC
Sichtweite 10 km oder mehr
keine Wolken unter 1500 m und keine Kumulonimbus oder Gewitterwolken

TAF: SARP 181700Z 1818/1918 14010KT 9999 BKN020 TX32/1819Z TN22/1909Z BECMG 1822/1824 CAVOK

Wetterbeobachtungen und Prognosen von mehr als 4000 Flughäfen (METAR und TAF Bericht).

Die verfügbaren Stationen werden durch gelbe und rote Markierungen auf der Karte dargestellt.

Führen Sie die Maus auf sie, um den Namen der Station zu sehen.

Darauf klicken, um die Beobachtung von Wetterbeobachtungen und Prognosen zu sehen.

Um die Karte zu ändern : klicken Sie auf den grünen Tasten mit einem schwarzen Kreuz Zum Vergrößern, auf den grünen Button mit einem Gedankenstrich zu verkleinern, oder auf die grünen Pfeile für benachbarte Karten.


METAR-TAF: